TimeCET,TemperatureF,Dew PointF,Humidity,Sea Level PressureIn,VisibilityMPH,Wind Direction,Wind SpeedMPH,Gust SpeedMPH,PrecipitationIn,Events,Conditions,WindDirDegrees,DateUTC
12:15 AM,35.6,33.8,93,29.68,6.2,Calm,Calm,-,N/A,,Partly Cloudy,0,2012-12-05 23:15:00
12:45 AM,35.6,32.0,87,29.68,6.2,NE,4.6,-,N/A,,Partly Cloudy,40,2012-12-05 23:45:00
1:15 AM,35.6,32.0,87,29.68,6.2,NNE,2.3,-,N/A,,Partly Cloudy,30,2012-12-06 00:15:00
1:45 AM,33.8,32.0,93,29.68,6.2,NE,5.8,-,N/A,,Partly Cloudy,50,2012-12-06 00:45:00
2:15 AM,33.8,32.0,93,29.68,6.2,NNE,2.3,-,N/A,,Partly Cloudy,30,2012-12-06 01:15:00
2:45 AM,33.8,32.0,93,29.68,6.2,NNE,4.6,-,N/A,,Partly Cloudy,20,2012-12-06 01:45:00
3:15 AM,33.8,32.0,93,29.68,6.2,NNE,2.3,-,N/A,,Partly Cloudy,30,2012-12-06 02:15:00
3:45 AM,33.8,30.2,87,29.68,6.2,NE,4.6,-,N/A,,Partly Cloudy,40,2012-12-06 02:45:00
4:15 AM,33.8,30.2,87,29.68,6.2,NE,6.9,-,N/A,,Partly Cloudy,50,2012-12-06 03:15:00
4:45 AM,32.0,30.2,93,29.68,6.2,North,2.3,-,N/A,,Partly Cloudy,360,2012-12-06 03:45:00
5:15 AM,33.8,30.2,87,29.68,6.2,NNW,2.3,-,N/A,,Partly Cloudy,340,2012-12-06 04:15:00
5:45 AM,33.8,32.0,93,29.71,6.2,NNE,5.8,-,N/A,,Scattered Clouds,30,2012-12-06 04:45:00
6:15 AM,33.8,32.0,93,29.71,6.2,ENE,5.8,-,N/A,,Scattered Clouds,70,2012-12-06 05:15:00
6:45 AM,33.8,32.0,93,29.71,6.2,NNE,6.9,-,N/A,,Mostly Cloudy,30,2012-12-06 05:45:00
7:15 AM,35.6,32.0,87,29.71,6.2,ENE,4.6,-,N/A,,Mostly Cloudy,60,2012-12-06 06:15:00
7:45 AM,35.6,32.0,87,29.71,6.2,NE,3.5,-,N/A,,Scattered Clouds,40,2012-12-06 06:45:00
8:15 AM,35.6,32.0,87,29.71,6.2,NNE,3.5,-,N/A,,Scattered Clouds,30,2012-12-06 07:15:00
8:45 AM,35.6,33.8,93,29.71,6.2,NNW,4.6,-,N/A,,Scattered Clouds,340,2012-12-06 07:45:00
9:15 AM,35.6,32.0,87,29.74,6.2,Calm,Calm,-,N/A,,Scattered Clouds,0,2012-12-06 08:15:00
9:45 AM,37.4,33.8,87,29.74,6.2,NNW,4.6,-,N/A,,Scattered Clouds,340,2012-12-06 08:45:00
10:15 AM,41.0,33.8,76,29.74,6.2,NNE,5.8,-,N/A,,Scattered Clouds,30,2012-12-06 09:15:00
10:45 AM,41.0,35.6,81,29.74,6.2,NNE,4.6,-,N/A,,Partly Cloudy,30,2012-12-06 09:45:00
11:15 AM,41.0,33.8,76,29.74,6.2,NNE,5.8,-,N/A,,Partly Cloudy,30,2012-12-06 10:15:00
11:45 AM,42.8,33.8,70,29.74,6.2,NNW,4.6,-,N/A,,Partly Cloudy,340,2012-12-06 10:45:00
12:15 PM,44.6,33.8,66,29.74,-9999.0,NNW,3.5,-,N/A,,Clear,340,2012-12-06 11:15:00
12:45 PM,46.4,35.6,66,29.74,6.2,North,4.6,-,N/A,,Partly Cloudy,10,2012-12-06 11:45:00
1:15 PM,48.2,33.8,58,29.74,6.2,North,5.8,-,N/A,,Partly Cloudy,360,2012-12-06 12:15:00
1:45 PM,48.2,32.0,54,29.77,-9999.0,North,6.9,-,N/A,,Clear,10,2012-12-06 12:45:00
2:15 PM,48.2,32.0,54,29.77,-9999.0,North,5.8,-,N/A,,Clear,10,2012-12-06 13:15:00
2:45 PM,48.2,32.0,54,29.77,-9999.0,North,6.9,-,N/A,,Clear,350,2012-12-06 13:45:00
3:15 PM,48.2,32.0,54,29.77,-9999.0,North,5.8,-,N/A,,Clear,10,2012-12-06 14:15:00
3:45 PM,46.4,32.0,57,29.77,-9999.0,North,5.8,-,N/A,,Clear,360,2012-12-06 14:45:00
4:15 PM,46.4,30.2,53,29.80,-9999.0,North,4.6,-,N/A,,Clear,10,2012-12-06 15:15:00
4:45 PM,44.6,30.2,57,29.80,-9999.0,NE,2.3,-,N/A,,Clear,50,2012-12-06 15:45:00
5:15 PM,42.8,30.2,61,29.80,-9999.0,NNE,2.3,-,N/A,,Clear,20,2012-12-06 16:15:00
5:45 PM,41.0,32.0,70,29.83,-9999.0,NNW,3.5,-,N/A,,Clear,330,2012-12-06 16:45:00
6:15 PM,39.2,32.0,75,29.83,-9999.0,ESE,1.2,-,N/A,,Clear,110,2012-12-06 17:15:00
6:45 PM,39.2,32.0,75,29.83,-9999.0,NE,3.5,-,N/A,,Clear,40,2012-12-06 17:45:00
7:15 PM,37.4,32.0,81,29.86,-9999.0,NE,5.8,-,N/A,,Clear,50,2012-12-06 18:15:00
7:45 PM,37.4,32.0,81,29.86,-9999.0,NE,5.8,-,N/A,,Clear,50,2012-12-06 18:45:00
8:15 PM,37.4,32.0,81,29.86,-9999.0,NE,4.6,-,N/A,,Clear,40,2012-12-06 19:15:00
8:45 PM,37.4,32.0,81,29.89,-9999.0,NE,5.8,-,N/A,,Clear,50,2012-12-06 19:45:00
9:15 PM,37.4,33.8,87,29.89,-9999.0,NE,4.6,-,N/A,,Clear,40,2012-12-06 20:15:00
9:45 PM,35.6,32.0,87,29.89,-9999.0,NNE,2.3,-,N/A,,Clear,20,2012-12-06 20:45:00
10:15 PM,35.6,32.0,87,29.89,-9999.0,NE,1.2,-,N/A,,Clear,50,2012-12-06 21:15:00
10:45 PM,33.8,32.0,93,29.89,5.0,NE,3.5,-,N/A,,Partly Cloudy,50,2012-12-06 21:45:00
11:15 PM,33.8,32.0,93,29.89,5.0,NNE,2.3,-,N/A,,Partly Cloudy,20,2012-12-06 22:15:00
11:45 PM,33.8,30.2,87,29.89,5.0,NE,3.5,-,N/A,,Partly Cloudy,40,2012-12-06 22:45:00